Seaspan Saigon — VRBT7 — position and weather

sailwx.info

Track history (hours):
 
Tides and Currents Weather Stations Pressure Air Temp Water Temp Dewpoint Dewpoint Depression Visibility Wind Speed Wind Dir Waves Ship Positions

Seaspan Saigon

Last reported at 2018-Jun-19 05:39 UTC. Time now 2018-Jun-20 20:34 UTC.
Position N 27°42' W 013°58'.

Length 260 m; draft 11.4 m.

Type: Ship (hazmat cat A). MMSI: 477106800.

Date/timePositionNaut miles runAvg speedWind from/ knotsBaromVisibWave heightAir tempDewpointWater temp
2018-Jun-19 05:39N 27°42' W 013°58'516.0
2018-Jun-19 05:21N 27°46' W 013°55'616.0
2018-Jun-19 05:00N 27°50' W 013°52'815.9
2018-Jun-19 04:30N 27°57' W 013°47'815.8
2018-Jun-19 04:00N 28°03' W 013°42'815.8
2018-Jun-19 03:30N 28°10' W 013°37'815.7
2018-Jun-19 02:59N 28°17' W 013°32'915.9
2018-Jun-19 02:26N 28°24' W 013°26'715.9
2018-Jun-19 02:00N 28°30' W 013°22'915.9
2018-Jun-19 01:25N 28°38' W 013°16'1515.7
2018-Jun-19 00:29N 28°50' W 013°07'815.9
2018-Jun-18 23:59N 28°56' W 013°02'54615.8
2018-Jun-17 13:18N 35°50' W 005°59'517.4
2018-Jun-17 13:00N 35°54' W 005°55'816.5
2018-Jun-17 12:30N 35°57' W 005°45'816.3
2018-Jun-17 12:00N 35°58' W 005°35'714.8
2018-Jun-17 11:30N 36°00' W 005°27'611.5
2018-Jun-17 11:00N 36°06' W 005°24'2 4.8
2018-Jun-17 10:30N 36°08' W 005°25'0 0.1
2018-Jun-17 10:00N 36°08' W 005°25'0 0.0
2018-Jun-17 09:30N 36°08' W 005°25'0 0.0
2018-Jun-17 08:51N 36°08' W 005°25'0 0.0
2018-Jun-17 08:30N 36°08' W 005°25'0 0.0
2018-Jun-17 08:00N 36°08' W 005°25'0 0.0
2018-Jun-17 07:30N 36°08' W 005°25'0 0.0
2018-Jun-17 06:57N 36°08' W 005°25'0 0.0
2018-Jun-17 06:30N 36°08' W 005°25'0 0.0
2018-Jun-17 06:00N 36°08' W 005°25'0 0.0
2018-Jun-17 05:30N 36°08' W 005°25'0 0.0
2018-Jun-17 05:00N 36°08' W 005°25'0 0.0
2018-Jun-17 04:30N 36°08' W 005°25'0 0.0
2018-Jun-17 03:57N 36°08' W 005°25'0 0.0
2018-Jun-17 03:30N 36°08' W 005°25'0 0.0
2018-Jun-17 03:00N 36°08' W 005°25'0 0.0
2018-Jun-17 02:30N 36°08' W 005°25'0 0.1
2018-Jun-17 02:00N 36°08' W 005°25'0 0.0
2018-Jun-17 01:27N 36°08' W 005°25'0 0.1
2018-Jun-17 01:00N 36°08' W 005°25'0 0.0
2018-Jun-17 00:30N 36°08' W 005°25'0 0.0
2018-Jun-17 00:00N 36°08' W 005°25'0 0.0
2018-Jun-16 23:30N 36°08' W 005°25'0 0.0
2018-Jun-16 23:00N 36°08' W 005°25'0 0.0
2018-Jun-16 22:30N 36°08' W 005°25'1 1.4
2018-Jun-16 22:00N 36°08' W 005°25'2 4.2
2018-Jun-16 21:30N 36°07' W 005°23'3 6.1
2018-Jun-16 21:00N 36°05' W 005°21'1 1.3
2018-Jun-16 20:30N 36°04' W 005°20'2 3.5
2018-Jun-16 20:00N 36°04' W 005°18'712.9
2018-Jun-16 19:30N 36°04' W 005°10'2 0.4
2018-Jun-16 15:40N 36°02' W 005°09'1 8.7
2018-Jun-16 15:30N 36°02' W 005°11'713.4
2018-Jun-16 15:00N 35°60' W 005°19'714.8
2018-Jun-16 14:31N 35°57' W 005°27'  
2018-Jun-13 04:06N 29°01' W 012°58'217.0
2018-Jun-13 03:58N 28°59' W 012°59'817.0
2018-Jun-13 03:30N 28°53' W 013°04'817.0
2018-Jun-13 03:01N 28°46' W 013°10'916.6
2018-Jun-13 02:27N 28°38' W 013°16'816.6
2018-Jun-13 01:59N 28°32' W 013°20'916.8
2018-Jun-13 01:28N 28°24' W 013°26'817.0
2018-Jun-13 00:58N 28°17' W 013°31'817.3
2018-Jun-13 00:29N 28°10' W 013°36'817.4
2018-Jun-13 00:00N 28°03' W 013°41'917.8
2018-Jun-12 23:30N 27°56' W 013°47'917.3
2018-Jun-12 23:00N 27°49' W 013°53'917.4
2018-Jun-12 22:30N 27°41' W 013°58'4817.9
2018-Jun-12 19:47N 27°01' W 014°28'517.3
2018-Jun-12 19:30N 26°57' W 014°32'  
Track history (hours):
 
Tides and Currents Weather Stations Pressure Air Temp Water Temp Dewpoint Dewpoint Depression Visibility Wind Speed Wind Dir Waves Ship Positions

Seaspan Saigon

Last reported at 2018-Jun-19 05:39 UTC. Time now 2018-Jun-20 20:34 UTC.
Position N 27°42' W 013°58'.

Length 260 m; draft 11.4 m.

Type: Ship (hazmat cat A). MMSI: 477106800.

Date/timePositionNaut miles runAvg speedWind from/ knotsBaromVisibWave heightAir tempDewpointWater temp
2018-Jun-19 05:39N 27°42' W 013°58'516.0
2018-Jun-19 05:21N 27°46' W 013°55'616.0
2018-Jun-19 05:00N 27°50' W 013°52'815.9
2018-Jun-19 04:30N 27°57' W 013°47'815.8
2018-Jun-19 04:00N 28°03' W 013°42'815.8
2018-Jun-19 03:30N 28°10' W 013°37'815.7
2018-Jun-19 02:59N 28°17' W 013°32'915.9
2018-Jun-19 02:26N 28°24' W 013°26'715.9
2018-Jun-19 02:00N 28°30' W 013°22'915.9
2018-Jun-19 01:25N 28°38' W 013°16'1515.7
2018-Jun-19 00:29N 28°50' W 013°07'815.9
2018-Jun-18 23:59N 28°56' W 013°02'54615.8
2018-Jun-17 13:18N 35°50' W 005°59'517.4
2018-Jun-17 13:00N 35°54' W 005°55'816.5
2018-Jun-17 12:30N 35°57' W 005°45'816.3
2018-Jun-17 12:00N 35°58' W 005°35'714.8
2018-Jun-17 11:30N 36°00' W 005°27'611.5
2018-Jun-17 11:00N 36°06' W 005°24'2 4.8
2018-Jun-17 10:30N 36°08' W 005°25'0 0.1
2018-Jun-17 10:00N 36°08' W 005°25'0 0.0
2018-Jun-17 09:30N 36°08' W 005°25'0 0.0
2018-Jun-17 08:51N 36°08' W 005°25'0 0.0
2018-Jun-17 08:30N 36°08' W 005°25'0 0.0
2018-Jun-17 08:00N 36°08' W 005°25'0 0.0
2018-Jun-17 07:30N 36°08' W 005°25'0 0.0
2018-Jun-17 06:57N 36°08' W 005°25'0 0.0
2018-Jun-17 06:30N 36°08' W 005°25'0 0.0
2018-Jun-17 06:00N 36°08' W 005°25'0 0.0
2018-Jun-17 05:30N 36°08' W 005°25'0 0.0
2018-Jun-17 05:00N 36°08' W 005°25'0 0.0
2018-Jun-17 04:30N 36°08' W 005°25'0 0.0
2018-Jun-17 03:57N 36°08' W 005°25'0 0.0
2018-Jun-17 03:30N 36°08' W 005°25'0 0.0
2018-Jun-17 03:00N 36°08' W 005°25'0 0.0
2018-Jun-17 02:30N 36°08' W 005°25'0 0.1
2018-Jun-17 02:00N 36°08' W 005°25'0 0.0
2018-Jun-17 01:27N 36°08' W 005°25'0 0.1
2018-Jun-17 01:00N 36°08' W 005°25'0 0.0
2018-Jun-17 00:30N 36°08' W 005°25'0 0.0
2018-Jun-17 00:00N 36°08' W 005°25'0 0.0
2018-Jun-16 23:30N 36°08' W 005°25'0 0.0
2018-Jun-16 23:00N 36°08' W 005°25'0 0.0
2018-Jun-16 22:30N 36°08' W 005°25'1 1.4
2018-Jun-16 22:00N 36°08' W 005°25'2 4.2
2018-Jun-16 21:30N 36°07' W 005°23'3 6.1
2018-Jun-16 21:00N 36°05' W 005°21'1 1.3
2018-Jun-16 20:30N 36°04' W 005°20'2 3.5
2018-Jun-16 20:00N 36°04' W 005°18'712.9
2018-Jun-16 19:30N 36°04' W 005°10'2 0.4
2018-Jun-16 15:40N 36°02' W 005°09'1 8.7
2018-Jun-16 15:30N 36°02' W 005°11'713.4
2018-Jun-16 15:00N 35°60' W 005°19'714.8
2018-Jun-16 14:31N 35°57' W 005°27'  
2018-Jun-13 04:06N 29°01' W 012°58'217.0
2018-Jun-13 03:58N 28°59' W 012°59'817.0
2018-Jun-13 03:30N 28°53' W 013°04'817.0
2018-Jun-13 03:01N 28°46' W 013°10'916.6
2018-Jun-13 02:27N 28°38' W 013°16'816.6
2018-Jun-13 01:59N 28°32' W 013°20'916.8
2018-Jun-13 01:28N 28°24' W 013°26'817.0
2018-Jun-13 00:58N 28°17' W 013°31'817.3
2018-Jun-13 00:29N 28°10' W 013°36'817.4
2018-Jun-13 00:00N 28°03' W 013°41'917.8
2018-Jun-12 23:30N 27°56' W 013°47'917.3
2018-Jun-12 23:00N 27°49' W 013°53'917.4
2018-Jun-12 22:30N 27°41' W 013°58'4817.9
2018-Jun-12 19:47N 27°01' W 014°28'517.3
2018-Jun-12 19:30N 26°57' W 014°32'  

Dump ship's entire track history